タヒチ島 の空港の天気 - METARとTAF

タヒチ・ファアア国際空港 ( NTAA / PPT ) - フランス領ポリネシア タヒチ島
飛行場実況気象(Metar)
観測時間08/22 06:30 TAHT (08/22 16:30 UTC)
風向・風速南東 1m/s
視程10km以上
天気現象
少しの雲 雲底高度 610m
気温22℃
湿度88%
気圧1017hPa
METARNTAA 221630Z 14002KT 9999 FEW020 22/20 Q1017 NOSIG
過去の天気等 Google飛行場航空写真 Wunderground天気予報

過去48時間のMETAR

飛行場予報(TAF)
発表時間: 8/22 01:00 TAHT (8/22 11:00 UTC)
予報対象時間: 22日2時 TAHT ~ 23日8時 TAHT
風向・風速不定 3m/s
視程10km以上
少しの雲 雲底高度 610m
TAF NTAA 221100Z 2212/2318 VRB05KT 9999 FEW020